sensor_id;sensor_type;location;lat;lon;timestamp;pressure;altitude;pressure_sealevel;temperature;humidity
13553;BME280;6847;48.830;9.116;2024-02-04T00:04:25;98714.31;;;9.80;56.54
13553;BME280;6847;48.830;9.116;2024-02-04T00:07:14;99024.59;;;11.61;57.05
13553;BME280;6847;48.830;9.116;2024-02-04T00:12:39;98874.19;;;10.88;nan
13553;BME280;6847;48.830;9.116;2024-02-04T00:15:40;98795.63;;;10.34;56.97
13553;BME280;6847;48.830;9.116;2024-02-04T00:18:40;98933.22;;;11.34;56.86
13553;BME280;6847;48.830;9.116;2024-02-04T00:21:36;98976.81;;;11.55;57.15
13553;BME280;6847;48.830;9.116;2024-02-04T00:24:28;98697.56;;;9.78;57.25
13553;BME280;6847;48.830;9.116;2024-02-04T00:27:14;98696.41;;;9.74;57.26
13553;BME280;6847;48.830;9.116;2024-02-04T00:30:01;98958.88;;;11.27;57.44
13553;BME280;6847;48.830;9.116;2024-02-04T00:32:51;98946.66;;;10.97;57.73
13553;BME280;6847;48.830;9.116;2024-02-04T00:35:38;98975.00;;;11.11;57.43
13553;BME280;6847;48.830;9.116;2024-02-04T00:38:25;98818.91;;;10.13;58.33
13553;BME280;6847;48.830;9.116;2024-02-04T00:41:18;98900.28;;;10.67;57.66
13553;BME280;6847;48.830;9.116;2024-02-04T00:44:08;98902.78;;;10.52;57.62
13553;BME280;6847;48.830;9.116;2024-02-04T00:46:56;98843.75;;;10.10;57.85
13553;BME280;6847;48.830;9.116;2024-02-04T00:49:45;98941.25;;;10.75;57.95
13553;BME280;6847;48.830;9.116;2024-02-04T00:52:38;98856.13;;;10.23;58.19
13553;BME280;6847;48.830;9.116;2024-02-04T00:55:24;98834.63;;;9.94;57.81
13553;BME280;6847;48.830;9.116;2024-02-04T00:58:10;98907.25;;;10.41;57.58
13553;BME280;6847;48.830;9.116;2024-02-04T01:00:58;98958.97;;;10.83;57.59
13553;BME280;6847;48.830;9.116;2024-02-04T01:03:48;98979.13;;;10.92;57.28
13553;BME280;6847;48.830;9.116;2024-02-04T01:06:39;98985.94;;;10.95;57.88
13553;BME280;6847;48.830;9.116;2024-02-04T01:09:24;98850.06;;;10.16;58.05
13553;BME280;6847;48.830;9.116;2024-02-04T01:12:13;98860.06;;;10.15;57.73
13553;BME280;6847;48.830;9.116;2024-02-04T01:15:03;98952.03;;;10.70;57.61
13553;BME280;6847;48.830;9.116;2024-02-04T01:17:49;98929.16;;;10.61;57.92
13553;BME280;6847;48.830;9.116;2024-02-04T01:20:39;98971.84;;;10.98;57.43
13553;BME280;6847;48.830;9.116;2024-02-04T01:23:27;98966.97;;;10.95;57.33
13553;BME280;6847;48.830;9.116;2024-02-04T01:26:14;98952.50;;;10.89;58.16
13553;BME280;6847;48.830;9.116;2024-02-04T01:29:03;98911.16;;;10.50;57.80
13553;BME280;6847;48.830;9.116;2024-02-04T01:31:54;98908.84;;;10.37;57.42
13553;BME280;6847;48.830;9.116;2024-02-04T01:34:39;98882.53;;;10.16;57.36
13553;BME280;6847;48.830;9.116;2024-02-04T01:37:25;98974.13;;;10.62;58.19
13553;BME280;6847;48.830;9.116;2024-02-04T01:40:19;98958.31;;;10.54;58.25
13553;BME280;6847;48.830;9.116;2024-02-04T01:43:06;98957.16;;;10.50;58.06
13553;BME280;6847;48.830;9.116;2024-02-04T01:45:57;98820.50;;;9.54;58.23
13553;BME280;6847;48.830;9.116;2024-02-04T01:48:43;98819.69;;;9.53;58.00
13553;BME280;6847;48.830;9.116;2024-02-04T01:51:31;98778.09;;;9.38;58.14
13553;BME280;6847;48.830;9.116;2024-02-04T01:54:20;98834.47;;;9.84;57.91
13553;BME280;6847;48.830;9.116;2024-02-04T01:57:12;98861.22;;;10.02;57.79
13553;BME280;6847;48.830;9.116;2024-02-04T02:00:09;98918.06;;;10.41;57.51
13553;BME280;6847;48.830;9.116;2024-02-04T02:02:55;98874.50;;;10.21;57.66
13553;BME280;6847;48.830;9.116;2024-02-04T02:05:59;98646.13;;;8.91;57.99
13553;BME280;6847;48.830;9.116;2024-02-04T02:09:07;98757.91;;;9.62;57.63
13553;BME280;6847;48.830;9.116;2024-02-04T02:12:01;98973.19;;;10.95;57.73
13553;BME280;6847;48.830;9.116;2024-02-04T02:15:05;98852.16;;;10.30;58.23
13553;BME280;6847;48.830;9.116;2024-02-04T02:18:04;98752.56;;;9.67;57.21
13553;BME280;6847;48.830;9.116;2024-02-04T02:21:02;98770.00;;;9.76;57.60
13553;BME280;6847;48.830;9.116;2024-02-04T02:24:04;98829.16;;;10.11;58.03
13553;BME280;6847;48.830;9.116;2024-02-04T02:27:04;98955.31;;;10.94;58.09
13553;BME280;6847;48.830;9.116;2024-02-04T02:29:50;98837.59;;;10.15;57.69
13553;BME280;6847;48.830;9.116;2024-02-04T02:32:41;98826.56;;;9.99;57.75
13553;BME280;6847;48.830;9.116;2024-02-04T02:35:34;98966.84;;;10.85;57.67
13553;BME280;6847;48.830;9.116;2024-02-04T02:38:26;98927.06;;;10.68;58.26
13553;BME280;6847;48.830;9.116;2024-02-04T02:41:12;98964.75;;;10.92;57.88
13553;BME280;6847;48.830;9.116;2024-02-04T02:44:05;98926.00;;;10.69;58.05
13553;BME280;6847;48.830;9.116;2024-02-04T02:46:57;98956.13;;;10.95;57.59
13553;BME280;6847;48.830;9.116;2024-02-04T02:49:46;98767.44;;;9.86;57.81
13553;BME280;6847;48.830;9.116;2024-02-04T02:55:17;98959.81;;;11.10;57.32
13553;BME280;6847;48.830;9.116;2024-02-04T02:58:05;98958.16;;;11.09;57.75
13553;BME280;6847;48.830;9.116;2024-02-04T03:00:52;98955.09;;;11.01;57.59
13553;BME280;6847;48.830;9.116;2024-02-04T03:03:39;98957.66;;;11.12;58.07
13553;BME280;6847;48.830;9.116;2024-02-04T03:06:26;98938.44;;;11.14;58.06
13553;BME280;6847;48.830;9.116;2024-02-04T03:09:12;98892.78;;;10.79;58.13
13553;BME280;6847;48.830;9.116;2024-02-04T03:11:57;98937.91;;;11.17;57.70
13553;BME280;6847;48.830;9.116;2024-02-04T03:14:42;98943.88;;;11.14;57.41
13553;BME280;6847;48.830;9.116;2024-02-04T03:17:34;98900.28;;;10.94;58.02
13553;BME280;6847;48.830;9.116;2024-02-04T03:20:25;98937.06;;;11.11;58.51
13553;BME280;6847;48.830;9.116;2024-02-04T03:23:10;98933.03;;;11.14;58.38
13553;BME280;6847;48.830;9.116;2024-02-04T03:25:55;98934.66;;;11.15;57.98
13553;BME280;6847;48.830;9.116;2024-02-04T03:28:40;98933.13;;;11.24;57.90
13553;BME280;6847;48.830;9.116;2024-02-04T03:31:25;98930.97;;;11.26;57.90
13553;BME280;6847;48.830;9.116;2024-02-04T03:34:12;98924.44;;;11.22;57.65
13553;BME280;6847;48.830;9.116;2024-02-04T03:37:00;98925.25;;;11.23;57.70
13553;BME280;6847;48.830;9.116;2024-02-04T03:39:49;98850.50;;;10.73;57.79
13553;BME280;6847;48.830;9.116;2024-02-04T03:42:34;98871.56;;;10.93;57.76
13553;BME280;6847;48.830;9.116;2024-02-04T03:45:20;98922.88;;;11.31;57.69
13553;BME280;6847;48.830;9.116;2024-02-04T03:48:05;98927.00;;;11.34;57.64
13553;BME280;6847;48.830;9.116;2024-02-04T03:50:52;98930.56;;;11.39;58.17
13553;BME280;6847;48.830;9.116;2024-02-04T03:53:38;98917.81;;;11.40;58.26
13553;BME280;6847;48.830;9.116;2024-02-04T03:56:29;98918.06;;;11.38;57.83
13553;BME280;6847;48.830;9.116;2024-02-04T03:59:16;98848.59;;;11.00;58.16
13553;BME280;6847;48.830;9.116;2024-02-04T04:02:02;98918.06;;;11.38;58.20
13553;BME280;6847;48.830;9.116;2024-02-04T04:04:48;98928.91;;;11.38;58.17
13553;BME280;6847;48.830;9.116;2024-02-04T04:07:38;98921.59;;;11.39;57.65
13553;BME280;6847;48.830;9.116;2024-02-04T04:10:23;98931.38;;;11.40;57.94
13553;BME280;6847;48.830;9.116;2024-02-04T04:13:08;98912.53;;;11.28;58.25
13553;BME280;6847;48.830;9.116;2024-02-04T04:15:57;98935.50;;;11.47;58.07
13553;BME280;6847;48.830;9.116;2024-02-04T04:18:42;98941.50;;;11.49;57.25
13553;BME280;6847;48.830;9.116;2024-02-04T04:21:27;98912.63;;;11.33;57.47
13553;BME280;6847;48.830;9.116;2024-02-04T04:24:14;98936.06;;;11.49;58.22
13553;BME280;6847;48.830;9.116;2024-02-04T04:27:03;98920.75;;;11.33;57.98
13553;BME280;6847;48.830;9.116;2024-02-04T04:29:48;98944.22;;;11.49;57.95
13553;BME280;6847;48.830;9.116;2024-02-04T04:32:36;98943.63;;;11.47;57.56
13553;BME280;6847;48.830;9.116;2024-02-04T04:35:21;98951.25;;;11.45;57.49
13553;BME280;6847;48.830;9.116;2024-02-04T04:38:07;98948.25;;;11.47;57.99
13553;BME280;6847;48.830;9.116;2024-02-04T04:40:54;98952.84;;;11.46;57.89
13553;BME280;6847;48.830;9.116;2024-02-04T04:43:39;98951.84;;;11.53;57.63
13553;BME280;6847;48.830;9.116;2024-02-04T04:46:27;98942.63;;;11.54;58.08
13553;BME280;6847;48.830;9.116;2024-02-04T04:49:15;98953.47;;;11.54;57.38
13553;BME280;6847;48.830;9.116;2024-02-04T04:52:08;98948.56;;;11.50;57.67
13553;BME280;6847;48.830;9.116;2024-02-04T04:54:54;98954.50;;;11.47;58.04
13553;BME280;6847;48.830;9.116;2024-02-04T04:57:44;98958.03;;;11.48;57.64
13553;BME280;6847;48.830;9.116;2024-02-04T05:00:32;98957.75;;;11.49;57.25
13553;BME280;6847;48.830;9.116;2024-02-04T05:03:19;98957.25;;;11.53;57.74
13553;BME280;6847;48.830;9.116;2024-02-04T05:06:04;98952.94;;;11.57;57.72
13553;BME280;6847;48.830;9.116;2024-02-04T05:08:51;98938.31;;;11.58;57.60
13553;BME280;6847;48.830;9.116;2024-02-04T05:11:36;98945.69;;;11.62;57.98
13553;BME280;6847;48.830;9.116;2024-02-04T05:14:23;98948.34;;;11.57;57.92
13553;BME280;6847;48.830;9.116;2024-02-04T05:17:09;98946.09;;;11.49;57.40
13553;BME280;6847;48.830;9.116;2024-02-04T05:19:54;98946.81;;;11.39;57.97
13553;BME280;6847;48.830;9.116;2024-02-04T05:22:39;98945.72;;;11.35;57.66
13553;BME280;6847;48.830;9.116;2024-02-04T05:25:24;98947.38;;;11.41;58.14
13553;BME280;6847;48.830;9.116;2024-02-04T05:28:10;98944.06;;;11.34;58.14
13553;BME280;6847;48.830;9.116;2024-02-04T05:30:57;98933.22;;;11.34;58.27
13553;BME280;6847;48.830;9.116;2024-02-04T05:33:42;98934.88;;;11.35;57.99
13553;BME280;6847;48.830;9.116;2024-02-04T05:36:27;98928.91;;;11.38;58.36
13553;BME280;6847;48.830;9.116;2024-02-04T05:39:12;98929.00;;;11.48;57.84
13553;BME280;6847;48.830;9.116;2024-02-04T05:41:58;98946.91;;;11.49;58.49
13553;BME280;6847;48.830;9.116;2024-02-04T05:44:43;98946.41;;;11.53;57.74
13553;BME280;6847;48.830;9.116;2024-02-04T05:47:30;98954.59;;;11.58;58.37
13553;BME280;6847;48.830;9.116;2024-02-04T05:50:16;98974.44;;;11.63;57.83
13553;BME280;6847;48.830;9.116;2024-02-04T05:53:03;98965.28;;;11.69;57.83
13553;BME280;6847;48.830;9.116;2024-02-04T05:55:48;98961.22;;;11.72;58.23
13553;BME280;6847;48.830;9.116;2024-02-04T05:58:35;98918.97;;;11.49;58.03
13553;BME280;6847;48.830;9.116;2024-02-04T06:01:21;98961.22;;;11.72;58.46
13553;BME280;6847;48.830;9.116;2024-02-04T06:04:23;98965.66;;;11.78;57.63
13553;BME280;6847;48.830;9.116;2024-02-04T06:07:09;98962.38;;;11.76;58.05
13553;BME280;6847;48.830;9.116;2024-02-04T06:09:54;98956.44;;;11.79;58.43
13553;BME280;6847;48.830;9.116;2024-02-04T06:12:39;98961.84;;;11.79;57.63
13553;BME280;6847;48.830;9.116;2024-02-04T06:15:31;98970.56;;;11.81;58.19
13553;BME280;6847;48.830;9.116;2024-02-04T06:18:16;98962.16;;;11.82;58.07
13553;BME280;6847;48.830;9.116;2024-02-04T06:21:04;98965.69;;;11.83;58.16
13553;BME280;6847;48.830;9.116;2024-02-04T06:23:50;98952.03;;;11.73;58.48
13553;BME280;6847;48.830;9.116;2024-02-04T06:26:38;98971.06;;;11.78;58.33
13553;BME280;6847;48.830;9.116;2024-02-04T06:29:34;98961.34;;;11.82;58.52
13553;BME280;6847;48.830;9.116;2024-02-04T06:32:35;98972.72;;;11.79;58.15
13553;BME280;6847;48.830;9.116;2024-02-04T06:35:23;98973.22;;;11.76;58.49
13553;BME280;6847;48.830;9.116;2024-02-04T06:38:10;98950.53;;;11.60;57.89
13553;BME280;6847;48.830;9.116;2024-02-04T06:40:58;98956.78;;;11.61;58.42
13553;BME280;6847;48.830;9.116;2024-02-04T06:43:44;98981.28;;;11.71;58.03
13553;BME280;6847;48.830;9.116;2024-02-04T06:46:30;98988.63;;;11.70;57.95
13553;BME280;6847;48.830;9.116;2024-02-04T06:49:17;98989.94;;;11.68;58.41
13553;BME280;6847;48.830;9.116;2024-02-04T06:52:06;98986.41;;;11.67;58.05
13553;BME280;6847;48.830;9.116;2024-02-04T06:54:54;98992.09;;;11.66;58.54
13553;BME280;6847;48.830;9.116;2024-02-04T06:57:42;98626.75;;;9.38;58.30
13553;BME280;6847;48.830;9.116;2024-02-04T07:00:28;98815.31;;;10.51;57.61
13553;BME280;6847;48.830;9.116;2024-02-04T07:03:13;98980.34;;;11.55;57.87
13553;BME280;6847;48.830;9.116;2024-02-04T07:05:59;98964.31;;;11.54;58.14
13553;BME280;6847;48.830;9.116;2024-02-04T07:08:44;98957.25;;;11.53;58.63
13553;BME280;6847;48.830;9.116;2024-02-04T07:11:32;98908.91;;;11.18;58.08
13553;BME280;6847;48.830;9.116;2024-02-04T07:14:19;98796.56;;;10.45;58.21
13553;BME280;6847;48.830;9.116;2024-02-04T07:17:09;98804.97;;;10.48;58.65
13553;BME280;6847;48.830;9.116;2024-02-04T07:20:01;98967.28;;;11.52;57.87
13553;BME280;6847;48.830;9.116;2024-02-04T07:22:49;98959.41;;;11.50;58.13
13553;BME280;6847;48.830;9.116;2024-02-04T07:25:40;98942.06;;;11.52;57.95
13553;BME280;6847;48.830;9.116;2024-02-04T07:28:28;98947.22;;;11.53;58.02
13553;BME280;6847;48.830;9.116;2024-02-04T07:31:16;98884.84;;;11.21;58.10
13553;BME280;6847;48.830;9.116;2024-02-04T07:34:03;98951.72;;;11.69;57.87
13553;BME280;6847;48.830;9.116;2024-02-04T07:36:49;98961.13;;;11.89;57.96
13553;BME280;6847;48.830;9.116;2024-02-04T07:39:36;98960.19;;;12.52;57.15
13553;BME280;6847;48.830;9.116;2024-02-04T07:42:21;98965.97;;;13.38;55.10
13553;BME280;6847;48.830;9.116;2024-02-04T07:45:11;98978.53;;;14.25;53.99
13553;BME280;6847;48.830;9.116;2024-02-04T07:47:56;98972.97;;;14.86;53.03
13553;BME280;6847;48.830;9.116;2024-02-04T07:50:42;98980.31;;;14.86;53.26
13553;BME280;6847;48.830;9.116;2024-02-04T07:53:27;98977.34;;;14.72;53.92
13553;BME280;6847;48.830;9.116;2024-02-04T07:56:13;98965.91;;;14.75;54.29
13553;BME280;6847;48.830;9.116;2024-02-04T07:58:59;98942.34;;;14.99;54.03
13553;BME280;6847;48.830;9.116;2024-02-04T08:01:53;98950.00;;;14.92;54.59
13553;BME280;6847;48.830;9.116;2024-02-04T08:04:40;98946.31;;;14.63;55.26
13553;BME280;6847;48.830;9.116;2024-02-04T08:07:28;98946.88;;;14.50;55.74
13553;BME280;6847;48.830;9.116;2024-02-04T08:10:15;98948.84;;;14.19;56.16
13553;BME280;6847;48.830;9.116;2024-02-04T08:13:00;98942.84;;;14.01;56.59
13553;BME280;6847;48.830;9.116;2024-02-04T08:15:45;98942.88;;;13.81;56.56
13553;BME280;6847;48.830;9.116;2024-02-04T08:18:35;98936.91;;;13.59;57.06
13553;BME280;6847;48.830;9.116;2024-02-04T08:21:23;98964.94;;;13.85;56.71
13553;BME280;6847;48.830;9.116;2024-02-04T08:24:08;98959.50;;;14.00;56.60
13553;BME280;6847;48.830;9.116;2024-02-04T08:26:57;98958.09;;;14.13;56.38
13553;BME280;6847;48.830;9.116;2024-02-04T08:29:45;98964.88;;;14.30;55.99
13553;BME280;6847;48.830;9.116;2024-02-04T08:32:30;98962.69;;;14.53;55.98
13553;BME280;6847;48.830;9.116;2024-02-04T08:35:18;98971.09;;;14.76;55.51
13553;BME280;6847;48.830;9.116;2024-02-04T08:38:04;98966.34;;;15.02;55.48
13553;BME280;6847;48.830;9.116;2024-02-04T08:40:51;98970.31;;;15.25;55.59
13553;BME280;6847;48.830;9.116;2024-02-04T08:43:37;98974.25;;;15.48;55.47
13553;BME280;6847;48.830;9.116;2024-02-04T08:46:24;98976.72;;;15.49;55.18
13553;BME280;6847;48.830;9.116;2024-02-04T08:49:09;98974.22;;;15.63;54.92
13553;BME280;6847;48.830;9.116;2024-02-04T08:51:57;98973.41;;;15.52;55.12
13553;BME280;6847;48.830;9.116;2024-02-04T08:54:42;98952.72;;;15.46;55.08
13553;BME280;6847;48.830;9.116;2024-02-04T08:57:28;98960.59;;;15.53;54.93
13553;BME280;6847;48.830;9.116;2024-02-04T09:00:14;98949.63;;;15.63;54.89
13553;BME280;6847;48.830;9.116;2024-02-04T09:02:59;98952.22;;;15.78;55.00
13553;BME280;6847;48.830;9.116;2024-02-04T09:05:44;98958.78;;;15.82;54.39
13553;BME280;6847;48.830;9.116;2024-02-04T09:08:34;98891.97;;;15.31;54.92
13553;BME280;6847;48.830;9.116;2024-02-04T09:11:21;98938.47;;;15.60;54.67
13553;BME280;6847;48.830;9.116;2024-02-04T09:14:09;98941.56;;;15.82;54.95
13553;BME280;6847;48.830;9.116;2024-02-04T09:16:55;98894.69;;;15.70;54.36
13553;BME280;6847;48.830;9.116;2024-02-04T09:19:42;98801.13;;;14.91;54.07
13553;BME280;6847;48.830;9.116;2024-02-04T09:22:27;98962.59;;;15.81;54.47
13553;BME280;6847;48.830;9.116;2024-02-04T09:25:13;98968.38;;;15.75;54.38
13553;BME280;6847;48.830;9.116;2024-02-04T09:27:59;98979.19;;;15.56;54.43
13553;BME280;6847;48.830;9.116;2024-02-04T09:30:44;98979.22;;;15.46;54.59
13553;BME280;6847;48.830;9.116;2024-02-04T09:33:30;98971.13;;;15.26;54.81
13553;BME280;6847;48.830;9.116;2024-02-04T09:36:15;98970.03;;;15.27;54.76
13553;BME280;6847;48.830;9.116;2024-02-04T09:39:22;98969.88;;;15.52;54.71
13553;BME280;6847;48.830;9.116;2024-02-04T09:42:19;98968.28;;;16.19;54.08
13553;BME280;6847;48.830;9.116;2024-02-04T09:45:05;98961.13;;;17.23;52.87
13553;BME280;6847;48.830;9.116;2024-02-04T09:47:56;98918.72;;;17.58;51.57
13553;BME280;6847;48.830;9.116;2024-02-04T09:50:44;98971.00;;;18.73;51.31
13553;BME280;6847;48.830;9.116;2024-02-04T09:53:33;98954.75;;;19.04;50.77
13553;BME280;6847;48.830;9.116;2024-02-04T09:56:22;98961.16;;;19.63;50.69
13553;BME280;6847;48.830;9.116;2024-02-04T09:59:14;98947.56;;;19.44;50.92
13553;BME280;6847;48.830;9.116;2024-02-04T10:02:03;98903.94;;;18.93;51.25
13553;BME280;6847;48.830;9.116;2024-02-04T10:04:49;98881.50;;;18.63;51.13
13553;BME280;6847;48.830;9.116;2024-02-04T10:07:39;98924.28;;;18.78;51.47
13553;BME280;6847;48.830;9.116;2024-02-04T10:10:25;98913.78;;;19.07;51.29
13553;BME280;6847;48.830;9.116;2024-02-04T10:13:11;98916.94;;;19.01;51.08
13553;BME280;6847;48.830;9.116;2024-02-04T10:15:58;98887.72;;;18.69;51.20
13553;BME280;6847;48.830;9.116;2024-02-04T10:18:45;98913.53;;;18.68;51.29
13553;BME280;6847;48.830;9.116;2024-02-04T10:21:31;98886.81;;;18.13;51.41
13553;BME280;6847;48.830;9.116;2024-02-04T10:24:21;98870.41;;;17.49;51.64
13553;BME280;6847;48.830;9.116;2024-02-04T10:27:06;98893.88;;;17.17;52.10
13553;BME280;6847;48.830;9.116;2024-02-04T10:29:54;98920.41;;;16.98;52.17
13553;BME280;6847;48.830;9.116;2024-02-04T10:32:54;98903.41;;;17.01;52.30
13553;BME280;6847;48.830;9.116;2024-02-04T10:35:42;98907.81;;;16.97;51.79
13553;BME280;6847;48.830;9.116;2024-02-04T10:38:30;98919.03;;;16.77;52.21
13553;BME280;6847;48.830;9.116;2024-02-04T10:41:18;98915.41;;;16.57;51.93
13553;BME280;6847;48.830;9.116;2024-02-04T10:44:06;98913.44;;;16.87;51.89
13553;BME280;6847;48.830;9.116;2024-02-04T10:46:54;98927.31;;;17.33;51.46
13553;BME280;6847;48.830;9.116;2024-02-04T10:49:53;98934.81;;;17.97;50.56
13553;BME280;6847;48.830;9.116;2024-02-04T10:52:39;98923.16;;;18.93;49.45
13553;BME280;6847;48.830;9.116;2024-02-04T10:55:27;98909.13;;;19.88;48.43
13553;BME280;6847;48.830;9.116;2024-02-04T10:58:15;98931.63;;;20.35;48.12
13553;BME280;6847;48.830;9.116;2024-02-04T11:01:04;98867.03;;;19.48;48.52
13553;BME280;6847;48.830;9.116;2024-02-04T11:03:51;98910.19;;;20.01;48.80
13553;BME280;6847;48.830;9.116;2024-02-04T11:06:48;98899.41;;;20.75;48.27
13553;BME280;6847;48.830;9.116;2024-02-04T11:09:35;98875.34;;;21.06;47.35
13553;BME280;6847;48.830;9.116;2024-02-04T11:12:23;98892.56;;;21.47;47.40
13553;BME280;6847;48.830;9.116;2024-02-04T11:15:18;98894.31;;;21.86;47.11
13553;BME280;6847;48.830;9.116;2024-02-04T11:18:21;98901.78;;;22.11;46.67
13553;BME280;6847;48.830;9.116;2024-02-04T11:21:32;98907.09;;;22.63;46.38
13553;BME280;6847;48.830;9.116;2024-02-04T11:24:37;98931.22;;;22.92;45.86
13553;BME280;6847;48.830;9.116;2024-02-04T11:27:27;98912.03;;;22.48;46.25
13553;BME280;6847;48.830;9.116;2024-02-04T11:30:15;98913.97;;;21.58;47.05
13553;BME280;6847;48.830;9.116;2024-02-04T11:33:01;98910.00;;;20.51;47.94
13553;BME280;6847;48.830;9.116;2024-02-04T11:35:58;98893.66;;;19.48;48.32
13553;BME280;6847;48.830;9.116;2024-02-04T11:38:48;98839.72;;;18.53;48.89
13553;BME280;6847;48.830;9.116;2024-02-04T11:41:44;98886.16;;;18.49;48.96
13553;BME280;6847;48.830;9.116;2024-02-04T11:44:32;98876.91;;;18.18;49.15
13553;BME280;6847;48.830;9.116;2024-02-04T11:47:29;98875.28;;;18.17;48.67
13553;BME280;6847;48.830;9.116;2024-02-04T11:50:28;98870.81;;;18.48;48.67
13553;BME280;6847;48.830;9.116;2024-02-04T11:53:17;98866.97;;;18.76;48.04
13553;BME280;6847;48.830;9.116;2024-02-04T11:56:04;98817.69;;;18.44;47.84
13553;BME280;6847;48.830;9.116;2024-02-04T11:58:53;98833.84;;;18.04;48.25
13553;BME280;6847;48.830;9.116;2024-02-04T12:01:40;98830.94;;;17.50;48.70
13553;BME280;6847;48.830;9.116;2024-02-04T12:04:31;98821.19;;;17.11;49.02
13553;BME280;6847;48.830;9.116;2024-02-04T12:07:18;98822.06;;;16.88;49.23
13553;BME280;6847;48.830;9.116;2024-02-04T12:10:04;98758.56;;;16.29;49.31
13553;BME280;6847;48.830;9.116;2024-02-04T12:12:52;98831.06;;;16.70;49.33
13553;BME280;6847;48.830;9.116;2024-02-04T12:15:40;98812.00;;;16.64;49.33
13553;BME280;6847;48.830;9.116;2024-02-04T12:18:26;98810.94;;;16.60;48.92
13553;BME280;6847;48.830;9.116;2024-02-04T12:21:12;98815.47;;;16.46;48.96
13553;BME280;6847;48.830;9.116;2024-02-04T12:23:58;98604.72;;;15.01;49.05
13553;BME280;6847;48.830;9.116;2024-02-04T12:26:51;98827.78;;;16.25;49.34
13553;BME280;6847;48.830;9.116;2024-02-04T12:29:41;98783.44;;;15.85;49.05
13553;BME280;6847;48.830;9.116;2024-02-04T12:32:29;98820.97;;;15.99;49.14
13553;BME280;6847;48.830;9.116;2024-02-04T12:35:16;98828.06;;;16.00;49.48
13553;BME280;6847;48.830;9.116;2024-02-04T12:38:02;98830.16;;;16.08;49.33
13553;BME280;6847;48.830;9.116;2024-02-04T12:40:47;98831.53;;;16.29;48.96
13553;BME280;6847;48.830;9.116;2024-02-04T12:43:33;98825.84;;;16.49;48.66
13553;BME280;6847;48.830;9.116;2024-02-04T12:46:21;98824.06;;;16.58;48.89
13553;BME280;6847;48.830;9.116;2024-02-04T12:49:09;98812.13;;;16.54;48.62
13553;BME280;6847;48.830;9.116;2024-02-04T12:52:04;98744.81;;;16.16;49.01
13553;BME280;6847;48.830;9.116;2024-02-04T12:54:51;98807.13;;;16.56;48.54
13553;BME280;6847;48.830;9.116;2024-02-04T12:57:38;98792.59;;;16.42;49.07
13553;BME280;6847;48.830;9.116;2024-02-04T13:00:23;98798.63;;;16.39;49.01
13553;BME280;6847;48.830;9.116;2024-02-04T13:03:15;98720.28;;;16.11;48.57
13553;BME280;6847;48.830;9.116;2024-02-04T13:06:02;98797.06;;;16.76;48.66
13553;BME280;6847;48.830;9.116;2024-02-04T13:08:48;98796.25;;;16.75;48.50
13553;BME280;6847;48.830;9.116;2024-02-04T13:11:37;98779.88;;;16.51;48.60
13553;BME280;6847;48.830;9.116;2024-02-04T13:14:26;98783.34;;;16.57;48.41
13553;BME280;6847;48.830;9.116;2024-02-04T13:17:12;98786.44;;;16.93;48.80
13553;BME280;6847;48.830;9.116;2024-02-04T13:20:01;98801.13;;;17.16;48.13
13553;BME280;6847;48.830;9.116;2024-02-04T13:22:50;98798.16;;;17.31;48.17
13553;BME280;6847;48.830;9.116;2024-02-04T13:25:40;98799.19;;;17.16;48.46
13553;BME280;6847;48.830;9.116;2024-02-04T13:28:31;98795.59;;;17.02;48.33
13553;BME280;6847;48.830;9.116;2024-02-04T13:31:19;98796.91;;;16.86;48.40
13553;BME280;6847;48.830;9.116;2024-02-04T13:34:14;98796.72;;;16.58;48.82
13553;BME280;6847;48.830;9.116;2024-02-04T13:37:03;98791.25;;;16.40;49.44
13553;BME280;6847;48.830;9.116;2024-02-04T13:39:49;98793.28;;;16.29;49.20
13553;BME280;6847;48.830;9.116;2024-02-04T13:42:35;98783.94;;;16.35;48.92
13553;BME280;6847;48.830;9.116;2024-02-04T13:45:22;98768.28;;;16.59;49.00
13553;BME280;6847;48.830;9.116;2024-02-04T13:48:11;98774.06;;;16.95;48.53
13553;BME280;6847;48.830;9.116;2024-02-04T13:50:59;98767.56;;;17.43;48.22
13553;BME280;6847;48.830;9.116;2024-02-04T13:53:44;98658.69;;;16.75;48.46
13553;BME280;6847;48.830;9.116;2024-02-04T13:56:33;98767.81;;;17.60;48.33
13553;BME280;6847;48.830;9.116;2024-02-04T13:59:20;98782.00;;;17.62;48.47
13553;BME280;6847;48.830;9.116;2024-02-04T14:02:09;98788.06;;;17.59;48.28
13553;BME280;6847;48.830;9.116;2024-02-04T14:04:54;98788.03;;;17.45;48.30
13553;BME280;6847;48.830;9.116;2024-02-04T14:07:39;98787.56;;;17.24;48.45
13553;BME280;6847;48.830;9.116;2024-02-04T14:10:25;98791.72;;;17.22;48.89
13553;BME280;6847;48.830;9.116;2024-02-04T14:13:13;98784.91;;;17.19;48.42
13553;BME280;6847;48.830;9.116;2024-02-04T14:16:04;98796.44;;;17.16;48.92
13553;BME280;6847;48.830;9.116;2024-02-04T14:18:55;98801.88;;;17.02;48.68
13553;BME280;6847;48.830;9.116;2024-02-04T14:21:47;98798.03;;;16.85;48.83
13553;BME280;6847;48.830;9.116;2024-02-04T14:24:33;98806.38;;;16.75;49.15
13553;BME280;6847;48.830;9.116;2024-02-04T14:27:23;98814.84;;;16.54;49.11
13553;BME280;6847;48.830;9.116;2024-02-04T14:30:12;98787.22;;;16.13;48.93
13553;BME280;6847;48.830;9.116;2024-02-04T14:32:57;98827.69;;;16.06;49.38
13553;BME280;6847;48.830;9.116;2024-02-04T14:35:47;98830.47;;;15.77;49.20
13553;BME280;6847;48.830;9.116;2024-02-04T14:38:32;98827.13;;;15.57;49.55
13553;BME280;6847;48.830;9.116;2024-02-04T14:41:19;98821.03;;;15.31;49.61
13553;BME280;6847;48.830;9.116;2024-02-04T14:44:05;98827.63;;;15.25;49.56
13553;BME280;6847;48.830;9.116;2024-02-04T14:46:53;98839.09;;;15.22;49.89
13553;BME280;6847;48.830;9.116;2024-02-04T14:49:50;98822.19;;;15.25;49.57
13553;BME280;6847;48.830;9.116;2024-02-04T14:52:37;98835.84;;;15.19;49.63
13553;BME280;6847;48.830;9.116;2024-02-04T14:55:27;98830.44;;;15.14;49.81
13553;BME280;6847;48.830;9.116;2024-02-04T14:58:15;98829.41;;;15.05;49.94
13553;BME280;6847;48.830;9.116;2024-02-04T15:01:04;98816.59;;;15.06;49.75
13553;BME280;6847;48.830;9.116;2024-02-04T15:03:51;98818.22;;;15.07;49.87
13553;BME280;6847;48.830;9.116;2024-02-04T15:06:37;98816.34;;;15.02;49.95
13553;BME280;6847;48.830;9.116;2024-02-04T15:09:23;98554.75;;;13.31;50.03
13553;BME280;6847;48.830;9.116;2024-02-04T15:12:14;98812.03;;;14.91;50.04
13553;BME280;6847;48.830;9.116;2024-02-04T15:15:10;98807.16;;;14.88;50.17